sensor_id;sensor_type;location;lat;lon;timestamp;temperature;humidity
9118;DHT22;4594;50.994;7.126;2023-05-10T00:00:21;16.10;68.90
9118;DHT22;4594;50.994;7.126;2023-05-10T00:02:48;16.20;69.00
9118;DHT22;4594;50.994;7.126;2023-05-10T00:05:14;16.10;68.90
9118;DHT22;4594;50.994;7.126;2023-05-10T00:07:39;16.30;69.10
9118;DHT22;4594;50.994;7.126;2023-05-10T00:10:05;16.30;69.10
9118;DHT22;4594;50.994;7.126;2023-05-10T00:12:31;16.30;69.20
9118;DHT22;4594;50.994;7.126;2023-05-10T00:14:57;16.50;69.40
9118;DHT22;4594;50.994;7.126;2023-05-10T00:17:23;16.20;69.00
9118;DHT22;4594;50.994;7.126;2023-05-10T00:19:49;16.30;69.10
9118;DHT22;4594;50.994;7.126;2023-05-10T00:22:14;16.20;69.00
9118;DHT22;4594;50.994;7.126;2023-05-10T00:24:40;16.40;69.20
9118;DHT22;4594;50.994;7.126;2023-05-10T00:27:05;16.30;69.20
9118;DHT22;4594;50.994;7.126;2023-05-10T00:29:31;16.30;69.30
9118;DHT22;4594;50.994;7.126;2023-05-10T00:31:58;16.30;69.30
9118;DHT22;4594;50.994;7.126;2023-05-10T00:34:24;16.40;69.50
9118;DHT22;4594;50.994;7.126;2023-05-10T00:36:50;16.30;69.30
9118;DHT22;4594;50.994;7.126;2023-05-10T00:39:15;16.30;69.40
9118;DHT22;4594;50.994;7.126;2023-05-10T00:41:41;16.30;69.40
9118;DHT22;4594;50.994;7.126;2023-05-10T00:44:07;16.20;69.30
9118;DHT22;4594;50.994;7.126;2023-05-10T00:46:32;16.20;69.30
9118;DHT22;4594;50.994;7.126;2023-05-10T00:48:58;16.30;69.50
9118;DHT22;4594;50.994;7.126;2023-05-10T00:51:24;16.20;69.40
9118;DHT22;4594;50.994;7.126;2023-05-10T00:53:51;16.20;69.40
9118;DHT22;4594;50.994;7.126;2023-05-10T00:56:17;16.30;69.50
9118;DHT22;4594;50.994;7.126;2023-05-10T00:58:43;16.30;69.50
9118;DHT22;4594;50.994;7.126;2023-05-10T01:01:09;16.30;69.60
9118;DHT22;4594;50.994;7.126;2023-05-10T01:03:36;16.30;69.60
9118;DHT22;4594;50.994;7.126;2023-05-10T01:06:02;16.30;69.60
9118;DHT22;4594;50.994;7.126;2023-05-10T01:08:28;16.30;70.00
9118;DHT22;4594;50.994;7.126;2023-05-10T01:10:55;16.30;69.80
9118;DHT22;4594;50.994;7.126;2023-05-10T01:13:36;16.20;69.70
9118;DHT22;4594;50.994;7.126;2023-05-10T01:16:04;16.30;68.90
9118;DHT22;4594;50.994;7.126;2023-05-10T01:18:31;16.30;69.80
9118;DHT22;4594;50.994;7.126;2023-05-10T01:21:15;16.30;69.80
9118;DHT22;4594;50.994;7.126;2023-05-10T01:36:05;16.30;69.50
9118;DHT22;4594;50.994;7.126;2023-05-10T01:38:47;16.30;69.80
9118;DHT22;4594;50.994;7.126;2023-05-10T01:41:49;16.30;69.70
9118;DHT22;4594;50.994;7.126;2023-05-10T01:44:31;16.40;68.80
9118;DHT22;4594;50.994;7.126;2023-05-10T01:47:15;16.30;69.30
9118;DHT22;4594;50.994;7.126;2023-05-10T01:49:50;16.30;68.90
9118;DHT22;4594;50.994;7.126;2023-05-10T01:52:20;16.30;69.30
9118;DHT22;4594;50.994;7.126;2023-05-10T01:54:58;16.30;69.70
9118;DHT22;4594;50.994;7.126;2023-05-10T01:57:34;16.30;69.40
9118;DHT22;4594;50.994;7.126;2023-05-10T02:00:03;16.30;69.50
9118;DHT22;4594;50.994;7.126;2023-05-10T02:02:33;16.30;69.80
9118;DHT22;4594;50.994;7.126;2023-05-10T02:05:05;16.40;69.70
9118;DHT22;4594;50.994;7.126;2023-05-10T02:07:33;16.40;69.90
9118;DHT22;4594;50.994;7.126;2023-05-10T02:10:03;16.30;69.70
9118;DHT22;4594;50.994;7.126;2023-05-10T02:12:32;16.30;69.50
9118;DHT22;4594;50.994;7.126;2023-05-10T02:15:02;16.30;69.30
9118;DHT22;4594;50.994;7.126;2023-05-10T02:17:32;16.30;69.20
9118;DHT22;4594;50.994;7.126;2023-05-10T02:19:59;16.30;69.20
9118;DHT22;4594;50.994;7.126;2023-05-10T02:22:27;16.30;69.10
9118;DHT22;4594;50.994;7.126;2023-05-10T02:24:55;16.30;69.60
9118;DHT22;4594;50.994;7.126;2023-05-10T02:27:24;16.30;69.30
9118;DHT22;4594;50.994;7.126;2023-05-10T02:29:53;16.30;69.40
9118;DHT22;4594;50.994;7.126;2023-05-10T02:32:21;16.20;69.30
9118;DHT22;4594;50.994;7.126;2023-05-10T02:34:48;16.20;69.20
9118;DHT22;4594;50.994;7.126;2023-05-10T02:37:19;16.20;69.30
9118;DHT22;4594;50.994;7.126;2023-05-10T02:39:48;16.20;69.10
9118;DHT22;4594;50.994;7.126;2023-05-10T02:42:17;16.30;69.30
9118;DHT22;4594;50.994;7.126;2023-05-10T02:44:49;16.20;69.20
9118;DHT22;4594;50.994;7.126;2023-05-10T02:47:18;16.20;68.90
9118;DHT22;4594;50.994;7.126;2023-05-10T02:49:44;16.20;69.20
9118;DHT22;4594;50.994;7.126;2023-05-10T02:52:11;16.10;69.00
9118;DHT22;4594;50.994;7.126;2023-05-10T02:54:45;16.20;69.10
9118;DHT22;4594;50.994;7.126;2023-05-10T02:57:16;16.20;68.90
9118;DHT22;4594;50.994;7.126;2023-05-10T02:59:46;16.10;68.80
9118;DHT22;4594;50.994;7.126;2023-05-10T03:02:12;16.10;69.20
9118;DHT22;4594;50.994;7.126;2023-05-10T03:04:38;16.20;69.30
9118;DHT22;4594;50.994;7.126;2023-05-10T03:07:04;16.10;69.30
9118;DHT22;4594;50.994;7.126;2023-05-10T03:09:31;16.10;69.30
9118;DHT22;4594;50.994;7.126;2023-05-10T03:12:04;16.10;69.20
9118;DHT22;4594;50.994;7.126;2023-05-10T03:15:11;16.10;68.70
9118;DHT22;4594;50.994;7.126;2023-05-10T03:21:00;16.10;68.20
9118;DHT22;4594;50.994;7.126;2023-05-10T03:23:46;16.10;69.10
9118;DHT22;4594;50.994;7.126;2023-05-10T03:26:20;16.10;68.90
9118;DHT22;4594;50.994;7.126;2023-05-10T03:28:49;16.10;69.10
9118;DHT22;4594;50.994;7.126;2023-05-10T03:31:17;16.20;69.50
9118;DHT22;4594;50.994;7.126;2023-05-10T03:33:47;16.10;69.40
9118;DHT22;4594;50.994;7.126;2023-05-10T03:36:14;16.10;69.20
9118;DHT22;4594;50.994;7.126;2023-05-10T03:38:39;16.10;69.60
9118;DHT22;4594;50.994;7.126;2023-05-10T03:41:05;16.30;69.90
9118;DHT22;4594;50.994;7.126;2023-05-10T03:43:31;16.10;69.60
9118;DHT22;4594;50.994;7.126;2023-05-10T03:45:56;16.10;69.60
9118;DHT22;4594;50.994;7.126;2023-05-10T03:48:22;16.10;69.60
9118;DHT22;4594;50.994;7.126;2023-05-10T03:50:48;16.10;69.70
9118;DHT22;4594;50.994;7.126;2023-05-10T03:53:15;16.10;69.70
9118;DHT22;4594;50.994;7.126;2023-05-10T03:55:41;16.10;69.70
9118;DHT22;4594;50.994;7.126;2023-05-10T03:58:06;16.20;69.80
9118;DHT22;4594;50.994;7.126;2023-05-10T04:00:36;16.10;69.80
9118;DHT22;4594;50.994;7.126;2023-05-10T04:03:02;16.10;69.80
9118;DHT22;4594;50.994;7.126;2023-05-10T04:05:28;16.10;69.80
9118;DHT22;4594;50.994;7.126;2023-05-10T04:07:54;16.10;69.90
9118;DHT22;4594;50.994;7.126;2023-05-10T04:10:20;16.20;70.00
9118;DHT22;4594;50.994;7.126;2023-05-10T04:12:46;16.10;69.80
9118;DHT22;4594;50.994;7.126;2023-05-10T04:15:12;16.20;69.90
9118;DHT22;4594;50.994;7.126;2023-05-10T04:17:37;16.10;69.90
9118;DHT22;4594;50.994;7.126;2023-05-10T04:20:03;16.20;70.00
9118;DHT22;4594;50.994;7.126;2023-05-10T04:22:30;16.10;69.90
9118;DHT22;4594;50.994;7.126;2023-05-10T04:24:57;16.10;70.00
9118;DHT22;4594;50.994;7.126;2023-05-10T04:27:22;16.20;70.10
9118;DHT22;4594;50.994;7.126;2023-05-10T04:29:48;16.20;70.50
9118;DHT22;4594;50.994;7.126;2023-05-10T04:32:14;16.20;70.10
9118;DHT22;4594;50.994;7.126;2023-05-10T04:34:41;16.20;70.10
9118;DHT22;4594;50.994;7.126;2023-05-10T04:37:07;16.30;70.30
9118;DHT22;4594;50.994;7.126;2023-05-10T04:39:33;16.20;70.10
9118;DHT22;4594;50.994;7.126;2023-05-10T04:41:58;16.20;70.10
9118;DHT22;4594;50.994;7.126;2023-05-10T04:44:24;16.20;70.20
9118;DHT22;4594;50.994;7.126;2023-05-10T04:46:50;16.20;70.20
9118;DHT22;4594;50.994;7.126;2023-05-10T04:49:15;16.30;70.40
9118;DHT22;4594;50.994;7.126;2023-05-10T04:51:42;16.30;70.40
9118;DHT22;4594;50.994;7.126;2023-05-10T04:54:07;16.20;70.30
9118;DHT22;4594;50.994;7.126;2023-05-10T04:56:33;16.30;70.40
9118;DHT22;4594;50.994;7.126;2023-05-10T04:58:59;16.20;70.30
9118;DHT22;4594;50.994;7.126;2023-05-10T05:01:24;16.20;70.30
9118;DHT22;4594;50.994;7.126;2023-05-10T05:03:50;16.20;70.30
9118;DHT22;4594;50.994;7.126;2023-05-10T05:06:18;16.20;70.30
9118;DHT22;4594;50.994;7.126;2023-05-10T05:08:43;16.20;70.40
9118;DHT22;4594;50.994;7.126;2023-05-10T05:11:09;16.30;70.80
9118;DHT22;4594;50.994;7.126;2023-05-10T05:13:35;16.30;70.90
9118;DHT22;4594;50.994;7.126;2023-05-10T05:16:02;16.30;71.00
9118;DHT22;4594;50.994;7.126;2023-05-10T05:18:28;16.30;71.00
9118;DHT22;4594;50.994;7.126;2023-05-10T05:20:54;16.30;71.10
9118;DHT22;4594;50.994;7.126;2023-05-10T05:23:19;16.40;71.30
9118;DHT22;4594;50.994;7.126;2023-05-10T05:25:46;16.30;71.20
9118;DHT22;4594;50.994;7.126;2023-05-10T05:28:12;16.40;71.30
9118;DHT22;4594;50.994;7.126;2023-05-10T05:30:37;16.40;71.30
9118;DHT22;4594;50.994;7.126;2023-05-10T05:33:03;16.40;71.30
9118;DHT22;4594;50.994;7.126;2023-05-10T05:35:29;16.40;71.30
9118;DHT22;4594;50.994;7.126;2023-05-10T05:37:55;16.50;71.30
9118;DHT22;4594;50.994;7.126;2023-05-10T05:40:21;16.40;71.20
9118;DHT22;4594;50.994;7.126;2023-05-10T05:42:46;16.40;71.20
9118;DHT22;4594;50.994;7.126;2023-05-10T05:45:12;16.50;71.20
9118;DHT22;4594;50.994;7.126;2023-05-10T05:47:39;16.50;71.30
9118;DHT22;4594;50.994;7.126;2023-05-10T05:50:05;16.50;71.30
9118;DHT22;4594;50.994;7.126;2023-05-10T05:52:31;16.50;71.30
9118;DHT22;4594;50.994;7.126;2023-05-10T05:54:57;16.50;71.40
9118;DHT22;4594;50.994;7.126;2023-05-10T05:57:22;16.50;71.80
9118;DHT22;4594;50.994;7.126;2023-05-10T05:59:48;16.60;71.50
9118;DHT22;4594;50.994;7.126;2023-05-10T06:02:14;16.50;71.50
9118;DHT22;4594;50.994;7.126;2023-05-10T06:04:39;16.60;71.80
9118;DHT22;4594;50.994;7.126;2023-05-10T06:07:05;16.60;71.80
9118;DHT22;4594;50.994;7.126;2023-05-10T06:09:31;16.60;71.80
9118;DHT22;4594;50.994;7.126;2023-05-10T06:11:56;16.60;71.70
9118;DHT22;4594;50.994;7.126;2023-05-10T06:14:22;16.70;71.70
9118;DHT22;4594;50.994;7.126;2023-05-10T06:16:48;16.70;71.80
9118;DHT22;4594;50.994;7.126;2023-05-10T06:19:13;16.70;71.80
9118;DHT22;4594;50.994;7.126;2023-05-10T06:21:39;16.80;71.90
9118;DHT22;4594;50.994;7.126;2023-05-10T06:24:05;16.80;71.80
9118;DHT22;4594;50.994;7.126;2023-05-10T06:26:32;16.80;71.60
9118;DHT22;4594;50.994;7.126;2023-05-10T06:28:58;16.80;71.50
9118;DHT22;4594;50.994;7.126;2023-05-10T06:31:23;16.80;71.40
9118;DHT22;4594;50.994;7.126;2023-05-10T06:33:49;16.90;71.40
9118;DHT22;4594;50.994;7.126;2023-05-10T06:36:15;16.90;71.40
9118;DHT22;4594;50.994;7.126;2023-05-10T06:38:40;16.90;71.40
9118;DHT22;4594;50.994;7.126;2023-05-10T06:41:06;16.90;71.40
9118;DHT22;4594;50.994;7.126;2023-05-10T06:43:32;16.90;71.30
9118;DHT22;4594;50.994;7.126;2023-05-10T06:45:57;16.80;71.20
9118;DHT22;4594;50.994;7.126;2023-05-10T06:48:23;16.90;71.30
9118;DHT22;4594;50.994;7.126;2023-05-10T06:50:49;16.90;71.40
9118;DHT22;4594;50.994;7.126;2023-05-10T06:53:14;16.90;71.30
9118;DHT22;4594;50.994;7.126;2023-05-10T06:55:40;16.90;71.30
9118;DHT22;4594;50.994;7.126;2023-05-10T06:58:06;17.00;71.30
9118;DHT22;4594;50.994;7.126;2023-05-10T07:00:32;17.20;71.60
9118;DHT22;4594;50.994;7.126;2023-05-10T07:02:57;17.00;70.70
9118;DHT22;4594;50.994;7.126;2023-05-10T07:05:23;17.00;70.60
9118;DHT22;4594;50.994;7.126;2023-05-10T07:07:50;17.10;70.70
9118;DHT22;4594;50.994;7.126;2023-05-10T07:10:15;17.10;70.50
9118;DHT22;4594;50.994;7.126;2023-05-10T07:12:41;16.90;70.10
9118;DHT22;4594;50.994;7.126;2023-05-10T07:15:07;16.90;70.10
9118;DHT22;4594;50.994;7.126;2023-05-10T07:17:34;16.90;70.10
9118;DHT22;4594;50.994;7.126;2023-05-10T07:19:59;16.90;70.10
9118;DHT22;4594;50.994;7.126;2023-05-10T07:22:25;16.90;70.20
9118;DHT22;4594;50.994;7.126;2023-05-10T07:24:51;16.90;70.20
9118;DHT22;4594;50.994;7.126;2023-05-10T07:27:17;16.90;70.30
9118;DHT22;4594;50.994;7.126;2023-05-10T07:29:42;16.90;70.40
9118;DHT22;4594;50.994;7.126;2023-05-10T07:32:08;16.90;70.50
9118;DHT22;4594;50.994;7.126;2023-05-10T07:34:34;16.90;70.70
9118;DHT22;4594;50.994;7.126;2023-05-10T07:37:00;16.90;71.00
9118;DHT22;4594;50.994;7.126;2023-05-10T07:39:27;16.90;71.10
9118;DHT22;4594;50.994;7.126;2023-05-10T07:41:53;16.90;71.10
9118;DHT22;4594;50.994;7.126;2023-05-10T07:44:19;17.00;71.30
9118;DHT22;4594;50.994;7.126;2023-05-10T07:46:46;16.90;71.30
9118;DHT22;4594;50.994;7.126;2023-05-10T07:49:12;17.00;71.50
9118;DHT22;4594;50.994;7.126;2023-05-10T07:51:38;17.00;71.60
9118;DHT22;4594;50.994;7.126;2023-05-10T07:54:04;17.00;71.70
9118;DHT22;4594;50.994;7.126;2023-05-10T07:56:31;17.00;71.60
9118;DHT22;4594;50.994;7.126;2023-05-10T07:58:58;17.00;71.70
9118;DHT22;4594;50.994;7.126;2023-05-10T08:01:25;17.10;72.20
9118;DHT22;4594;50.994;7.126;2023-05-10T08:03:52;17.10;72.50
9118;DHT22;4594;50.994;7.126;2023-05-10T08:06:19;17.10;72.70
9118;DHT22;4594;50.994;7.126;2023-05-10T08:08:46;17.20;72.80
9118;DHT22;4594;50.994;7.126;2023-05-10T08:11:18;17.20;72.90
9118;DHT22;4594;50.994;7.126;2023-05-10T08:13:46;17.30;73.10
9118;DHT22;4594;50.994;7.126;2023-05-10T08:16:13;17.30;73.10
9118;DHT22;4594;50.994;7.126;2023-05-10T08:18:39;17.30;73.10
9118;DHT22;4594;50.994;7.126;2023-05-10T08:21:06;17.40;73.20
9118;DHT22;4594;50.994;7.126;2023-05-10T08:23:32;17.50;73.10
9118;DHT22;4594;50.994;7.126;2023-05-10T08:25:57;17.50;72.80
9118;DHT22;4594;50.994;7.126;2023-05-10T08:28:24;17.50;72.50
9118;DHT22;4594;50.994;7.126;2023-05-10T08:30:50;17.60;72.30
9118;DHT22;4594;50.994;7.126;2023-05-10T08:33:17;17.50;72.00
9118;DHT22;4594;50.994;7.126;2023-05-10T08:35:44;17.50;71.80
9118;DHT22;4594;50.994;7.126;2023-05-10T08:38:10;17.60;72.00
9118;DHT22;4594;50.994;7.126;2023-05-10T08:40:37;17.50;72.00
9118;DHT22;4594;50.994;7.126;2023-05-10T08:43:08;17.60;72.10
9118;DHT22;4594;50.994;7.126;2023-05-10T08:45:40;17.60;71.40
9118;DHT22;4594;50.994;7.126;2023-05-10T08:48:08;17.60;71.70
9118;DHT22;4594;50.994;7.126;2023-05-10T08:50:36;17.50;72.30
9118;DHT22;4594;50.994;7.126;2023-05-10T08:53:05;17.70;72.60
9118;DHT22;4594;50.994;7.126;2023-05-10T08:55:36;17.70;72.50
9118;DHT22;4594;50.994;7.126;2023-05-10T08:58:06;17.70;72.90
9118;DHT22;4594;50.994;7.126;2023-05-10T09:00:33;17.80;73.30
9118;DHT22;4594;50.994;7.126;2023-05-10T09:03:01;17.80;73.70
9118;DHT22;4594;50.994;7.126;2023-05-10T09:05:27;17.90;74.10
9118;DHT22;4594;50.994;7.126;2023-05-10T09:07:53;17.90;74.30
9118;DHT22;4594;50.994;7.126;2023-05-10T09:10:20;18.00;74.10
9118;DHT22;4594;50.994;7.126;2023-05-10T09:12:46;18.10;73.90
9118;DHT22;4594;50.994;7.126;2023-05-10T09:15:15;18.10;73.90
9118;DHT22;4594;50.994;7.126;2023-05-10T09:17:44;18.20;73.80
9118;DHT22;4594;50.994;7.126;2023-05-10T09:20:11;18.20;74.40
9118;DHT22;4594;50.994;7.126;2023-05-10T09:22:37;18.30;74.60
9118;DHT22;4594;50.994;7.126;2023-05-10T09:27:33;18.40;73.70
9118;DHT22;4594;50.994;7.126;2023-05-10T09:30:00;18.50;73.60
9118;DHT22;4594;50.994;7.126;2023-05-10T09:32:43;18.50;73.40
9118;DHT22;4594;50.994;7.126;2023-05-10T09:35:14;18.50;71.50
9118;DHT22;4594;50.994;7.126;2023-05-10T09:37:43;18.50;72.60
9118;DHT22;4594;50.994;7.126;2023-05-10T09:40:19;18.50;71.90
9118;DHT22;4594;50.994;7.126;2023-05-10T09:45:22;18.50;69.60
9118;DHT22;4594;50.994;7.126;2023-05-10T09:47:48;18.40;70.40
9118;DHT22;4594;50.994;7.126;2023-05-10T09:50:14;18.40;70.20
9118;DHT22;4594;50.994;7.126;2023-05-10T09:52:51;18.40;70.10
9118;DHT22;4594;50.994;7.126;2023-05-10T09:55:45;18.30;68.60
9118;DHT22;4594;50.994;7.126;2023-05-10T09:58:11;18.20;69.80
9118;DHT22;4594;50.994;7.126;2023-05-10T10:00:40;18.30;70.30
9118;DHT22;4594;50.994;7.126;2023-05-10T10:03:13;18.20;70.40
9118;DHT22;4594;50.994;7.126;2023-05-10T10:05:41;18.20;70.30
9118;DHT22;4594;50.994;7.126;2023-05-10T10:08:09;18.20;71.30
9118;DHT22;4594;50.994;7.126;2023-05-10T10:10:35;18.20;71.50
9118;DHT22;4594;50.994;7.126;2023-05-10T10:13:01;18.30;71.60
9118;DHT22;4594;50.994;7.126;2023-05-10T10:15:27;18.30;71.90
9118;DHT22;4594;50.994;7.126;2023-05-10T10:17:53;18.30;72.30
9118;DHT22;4594;50.994;7.126;2023-05-10T10:20:21;18.30;72.80
9118;DHT22;4594;50.994;7.126;2023-05-10T10:22:48;18.40;72.80
9118;DHT22;4594;50.994;7.126;2023-05-10T10:25:15;18.40;72.30
9118;DHT22;4594;50.994;7.126;2023-05-10T10:30:37;18.40;70.10
9118;DHT22;4594;50.994;7.126;2023-05-10T10:36:02;18.40;69.70
9118;DHT22;4594;50.994;7.126;2023-05-10T10:41:34;18.40;68.50
9118;DHT22;4594;50.994;7.126;2023-05-10T10:49:48;18.40;70.70
9118;DHT22;4594;50.994;7.126;2023-05-10T10:52:26;18.30;70.80
9118;DHT22;4594;50.994;7.126;2023-05-10T10:55:06;18.40;70.00
9118;DHT22;4594;50.994;7.126;2023-05-10T10:57:55;18.40;71.00
9118;DHT22;4594;50.994;7.126;2023-05-10T11:00:38;18.40;71.60
9118;DHT22;4594;50.994;7.126;2023-05-10T11:03:11;18.60;72.30
9118;DHT22;4594;50.994;7.126;2023-05-10T11:05:48;18.70;75.00
9118;DHT22;4594;50.994;7.126;2023-05-10T11:13:37;19.40;81.10
9118;DHT22;4594;50.994;7.126;2023-05-10T11:16:23;19.70;85.20
9118;DHT22;4594;50.994;7.126;2023-05-10T11:19:02;20.20;86.40
9118;DHT22;4594;50.994;7.126;2023-05-10T11:21:31;20.70;90.20
9118;DHT22;4594;50.994;7.126;2023-05-10T11:23:59;21.20;91.20
9118;DHT22;4594;50.994;7.126;2023-05-10T11:26:34;21.60;90.30
9118;DHT22;4594;50.994;7.126;2023-05-10T11:29:01;22.00;85.40
9118;DHT22;4594;50.994;7.126;2023-05-10T11:31:28;22.20;85.10
9118;DHT22;4594;50.994;7.126;2023-05-10T11:33:56;22.50;83.80
9118;DHT22;4594;50.994;7.126;2023-05-10T11:36:25;22.60;80.80
9118;DHT22;4594;50.994;7.126;2023-05-10T11:38:53;22.70;79.00
9118;DHT22;4594;50.994;7.126;2023-05-10T11:41:21;22.80;77.50
9118;DHT22;4594;50.994;7.126;2023-05-10T11:43:49;22.90;75.00
9118;DHT22;4594;50.994;7.126;2023-05-10T11:46:18;22.80;72.40
9118;DHT22;4594;50.994;7.126;2023-05-10T11:48:49;22.70;69.10
9118;DHT22;4594;50.994;7.126;2023-05-10T11:51:20;22.60;67.80
9118;DHT22;4594;50.994;7.126;2023-05-10T11:53:52;22.40;65.60
9118;DHT22;4594;50.994;7.126;2023-05-10T11:56:19;22.20;66.40
9118;DHT22;4594;50.994;7.126;2023-05-10T11:58:56;22.10;66.20
9118;DHT22;4594;50.994;7.126;2023-05-10T12:01:24;21.90;64.10
9118;DHT22;4594;50.994;7.126;2023-05-10T12:03:53;21.70;66.60
9118;DHT22;4594;50.994;7.126;2023-05-10T12:06:20;21.60;66.80
9118;DHT22;4594;50.994;7.126;2023-05-10T12:08:48;21.50;67.90
9118;DHT22;4594;50.994;7.126;2023-05-10T12:11:19;21.40;69.00
9118;DHT22;4594;50.994;7.126;2023-05-10T12:13:47;21.40;69.80
9118;DHT22;4594;50.994;7.126;2023-05-10T12:16:17;21.40;70.60
9118;DHT22;4594;50.994;7.126;2023-05-10T12:18:51;21.40;69.50
9118;DHT22;4594;50.994;7.126;2023-05-10T12:21:20;21.50;69.60
9118;DHT22;4594;50.994;7.126;2023-05-10T12:23:50;21.50;70.20
9118;DHT22;4594;50.994;7.126;2023-05-10T12:26:28;21.50;69.70
9118;DHT22;4594;50.994;7.126;2023-05-10T12:28:54;21.40;67.40
9118;DHT22;4594;50.994;7.126;2023-05-10T12:31:21;21.50;69.00
9118;DHT22;4594;50.994;7.126;2023-05-10T12:33:46;21.50;68.50
9118;DHT22;4594;50.994;7.126;2023-05-10T12:36:15;21.40;67.80
9118;DHT22;4594;50.994;7.126;2023-05-10T12:38:45;21.30;67.40
9118;DHT22;4594;50.994;7.126;2023-05-10T12:41:16;21.30;65.80
9118;DHT22;4594;50.994;7.126;2023-05-10T12:43:43;21.30;67.50
9118;DHT22;4594;50.994;7.126;2023-05-10T12:46:11;21.20;68.40
9118;DHT22;4594;50.994;7.126;2023-05-10T12:48:39;21.30;69.30
9118;DHT22;4594;50.994;7.126;2023-05-10T12:51:06;21.30;69.80
9118;DHT22;4594;50.994;7.126;2023-05-10T12:53:37;21.30;70.00
9118;DHT22;4594;50.994;7.126;2023-05-10T12:56:04;21.40;70.40
9118;DHT22;4594;50.994;7.126;2023-05-10T12:58:31;21.50;70.40
9118;DHT22;4594;50.994;7.126;2023-05-10T13:00:58;21.60;71.40
9118;DHT22;4594;50.994;7.126;2023-05-10T13:03:24;21.70;71.80
9118;DHT22;4594;50.994;7.126;2023-05-10T13:05:50;21.80;71.40
9118;DHT22;4594;50.994;7.126;2023-05-10T13:08:16;21.90;71.20
9118;DHT22;4594;50.994;7.126;2023-05-10T13:10:42;22.00;70.50
9118;DHT22;4594;50.994;7.126;2023-05-10T13:13:07;22.00;70.20
9118;DHT22;4594;50.994;7.126;2023-05-10T13:15:34;22.10;69.30
9118;DHT22;4594;50.994;7.126;2023-05-10T13:18:00;22.10;68.80
9118;DHT22;4594;50.994;7.126;2023-05-10T13:20:26;22.20;68.80
9118;DHT22;4594;50.994;7.126;2023-05-10T13:22:52;22.20;67.90
9118;DHT22;4594;50.994;7.126;2023-05-10T13:25:18;22.20;67.10
9118;DHT22;4594;50.994;7.126;2023-05-10T13:27:45;22.20;66.90
9118;DHT22;4594;50.994;7.126;2023-05-10T13:30:11;22.20;67.40
9118;DHT22;4594;50.994;7.126;2023-05-10T13:32:37;22.30;67.40
9118;DHT22;4594;50.994;7.126;2023-05-10T13:35:04;22.30;67.40
9118;DHT22;4594;50.994;7.126;2023-05-10T13:37:31;22.30;67.10
9118;DHT22;4594;50.994;7.126;2023-05-10T13:39:57;22.30;66.60
9118;DHT22;4594;50.994;7.126;2023-05-10T13:42:23;22.30;66.80
9118;DHT22;4594;50.994;7.126;2023-05-10T13:44:49;22.30;66.30
9118;DHT22;4594;50.994;7.126;2023-05-10T13:47:15;22.30;66.60
9118;DHT22;4594;50.994;7.126;2023-05-10T13:49:41;22.30;66.00
9118;DHT22;4594;50.994;7.126;2023-05-10T13:52:07;22.30;65.50
9118;DHT22;4594;50.994;7.126;2023-05-10T13:54:34;22.30;64.90
9118;DHT22;4594;50.994;7.126;2023-05-10T13:56:59;22.30;65.00
9118;DHT22;4594;50.994;7.126;2023-05-10T13:59:25;22.20;65.00
9118;DHT22;4594;50.994;7.126;2023-05-10T14:01:51;22.20;65.00
9118;DHT22;4594;50.994;7.126;2023-05-10T14:04:17;22.20;64.70
9118;DHT22;4594;50.994;7.126;2023-05-10T14:06:42;22.20;64.30
9118;DHT22;4594;50.994;7.126;2023-05-10T14:09:08;22.10;64.00
9118;DHT22;4594;50.994;7.126;2023-05-10T14:11:34;22.10;63.60
9118;DHT22;4594;50.994;7.126;2023-05-10T14:14:00;22.10;63.60
9118;DHT22;4594;50.994;7.126;2023-05-10T14:16:25;22.00;63.20
9118;DHT22;4594;50.994;7.126;2023-05-10T14:18:52;21.90;63.20
9118;DHT22;4594;50.994;7.126;2023-05-10T14:21:18;21.80;63.20
9118;DHT22;4594;50.994;7.126;2023-05-10T14:23:43;21.70;63.20
9118;DHT22;4594;50.994;7.126;2023-05-10T14:26:09;21.70;63.70
9118;DHT22;4594;50.994;7.126;2023-05-10T14:28:35;21.60;63.50
9118;DHT22;4594;50.994;7.126;2023-05-10T14:31:00;21.60;62.70
9118;DHT22;4594;50.994;7.126;2023-05-10T14:33:26;21.50;62.90
9118;DHT22;4594;50.994;7.126;2023-05-10T14:35:53;21.40;63.30
9118;DHT22;4594;50.994;7.126;2023-05-10T14:38:19;21.40;63.40
9118;DHT22;4594;50.994;7.126;2023-05-10T14:40:45;21.30;63.40
9118;DHT22;4594;50.994;7.126;2023-05-10T14:43:10;21.20;63.00
9118;DHT22;4594;50.994;7.126;2023-05-10T14:45:36;21.20;63.40
9118;DHT22;4594;50.994;7.126;2023-05-10T14:48:02;21.10;63.60
9118;DHT22;4594;50.994;7.126;2023-05-10T14:50:30;21.10;63.80
9118;DHT22;4594;50.994;7.126;2023-05-10T14:52:57;21.10;63.80
9118;DHT22;4594;50.994;7.126;2023-05-10T14:55:23;21.00;63.40
9118;DHT22;4594;50.994;7.126;2023-05-10T14:57:49;21.00;62.90
9118;DHT22;4594;50.994;7.126;2023-05-10T15:00:16;20.90;63.10
9118;DHT22;4594;50.994;7.126;2023-05-10T15:02:43;20.90;63.80
9118;DHT22;4594;50.994;7.126;2023-05-10T15:05:09;20.80;63.80
9118;DHT22;4594;50.994;7.126;2023-05-10T15:07:35;20.80;63.60
9118;DHT22;4594;50.994;7.126;2023-05-10T15:10:00;20.70;63.40
9118;DHT22;4594;50.994;7.126;2023-05-10T15:12:26;20.70;64.00
9118;DHT22;4594;50.994;7.126;2023-05-10T15:14:52;20.70;64.60
9118;DHT22;4594;50.994;7.126;2023-05-10T15:17:17;20.70;64.70
9118;DHT22;4594;50.994;7.126;2023-05-10T15:19:43;20.60;64.80
9118;DHT22;4594;50.994;7.126;2023-05-10T15:22:09;20.50;65.10
9118;DHT22;4594;50.994;7.126;2023-05-10T15:24:34;20.60;65.30
9118;DHT22;4594;50.994;7.126;2023-05-10T15:27:00;20.60;65.40
9118;DHT22;4594;50.994;7.126;2023-05-10T15:29:26;20.60;65.10
9118;DHT22;4594;50.994;7.126;2023-05-10T15:31:52;20.50;65.00
9118;DHT22;4594;50.994;7.126;2023-05-10T15:34:18;20.50;65.10
9118;DHT22;4594;50.994;7.126;2023-05-10T15:36:44;20.50;65.40
9118;DHT22;4594;50.994;7.126;2023-05-10T15:39:10;20.50;65.40
9118;DHT22;4594;50.994;7.126;2023-05-10T15:41:36;20.50;65.40
9118;DHT22;4594;50.994;7.126;2023-05-10T15:44:02;20.40;64.60
9118;DHT22;4594;50.994;7.126;2023-05-10T15:46:28;20.40;64.20
9118;DHT22;4594;50.994;7.126;2023-05-10T15:48:54;20.30;64.10
9118;DHT22;4594;50.994;7.126;2023-05-10T15:51:20;20.30;63.70
9118;DHT22;4594;50.994;7.126;2023-05-10T15:53:46;20.20;63.90
9118;DHT22;4594;50.994;7.126;2023-05-10T15:56:12;20.10;63.90
9118;DHT22;4594;50.994;7.126;2023-05-10T15:58:39;20.00;63.30
9118;DHT22;4594;50.994;7.126;2023-05-10T16:01:05;19.80;61.90
9118;DHT22;4594;50.994;7.126;2023-05-10T16:03:31;19.80;62.10
9118;DHT22;4594;50.994;7.126;2023-05-10T16:05:57;19.60;61.90
9118;DHT22;4594;50.994;7.126;2023-05-10T16:08:23;19.40;62.20
9118;DHT22;4594;50.994;7.126;2023-05-10T16:10:52;19.30;62.40
9118;DHT22;4594;50.994;7.126;2023-05-10T16:13:18;19.10;61.80
9118;DHT22;4594;50.994;7.126;2023-05-10T16:15:44;19.10;62.80
9118;DHT22;4594;50.994;7.126;2023-05-10T16:18:10;18.90;63.40
9118;DHT22;4594;50.994;7.126;2023-05-10T16:20:36;18.80;63.70
9118;DHT22;4594;50.994;7.126;2023-05-10T16:23:05;18.80;64.40
9118;DHT22;4594;50.994;7.126;2023-05-10T16:25:32;18.70;64.40
9118;DHT22;4594;50.994;7.126;2023-05-10T16:27:58;18.60;65.30
9118;DHT22;4594;50.994;7.126;2023-05-10T16:30:25;18.60;65.70
9118;DHT22;4594;50.994;7.126;2023-05-10T16:32:54;18.60;66.10
9118;DHT22;4594;50.994;7.126;2023-05-10T16:35:20;18.60;66.30
9118;DHT22;4594;50.994;7.126;2023-05-10T16:37:47;18.40;66.30
9118;DHT22;4594;50.994;7.126;2023-05-10T16:40:13;18.40;66.40
9118;DHT22;4594;50.994;7.126;2023-05-10T16:42:39;18.40;66.50
9118;DHT22;4594;50.994;7.126;2023-05-10T16:45:05;18.30;66.50